sensor_id;sensor_type;location;lat;lon;timestamp;P1;durP1;ratioP1;P2;durP2;ratioP2
22965;SDS011;11649;48.090;9.754;2023-04-01T00:01:26;5.60;;;1.42;;
22965;SDS011;11649;48.090;9.754;2023-04-01T00:03:53;10.70;;;1.67;;
22965;SDS011;11649;48.090;9.754;2023-04-01T00:06:20;9.57;;;1.27;;
22965;SDS011;11649;48.090;9.754;2023-04-01T00:08:47;3.95;;;1.20;;
22965;SDS011;11649;48.090;9.754;2023-04-01T00:11:14;5.25;;;1.10;;
22965;SDS011;11649;48.090;9.754;2023-04-01T00:13:42;6.18;;;1.05;;
22965;SDS011;11649;48.090;9.754;2023-04-01T00:16:09;3.97;;;1.30;;
22965;SDS011;11649;48.090;9.754;2023-04-01T00:18:47;4.63;;;1.10;;
22965;SDS011;11649;48.090;9.754;2023-04-01T00:21:14;8.27;;;1.60;;
22965;SDS011;11649;48.090;9.754;2023-04-01T00:23:42;4.25;;;1.00;;
22965;SDS011;11649;48.090;9.754;2023-04-01T00:26:10;2.67;;;0.80;;
22965;SDS011;11649;48.090;9.754;2023-04-01T00:28:38;3.50;;;1.00;;
22965;SDS011;11649;48.090;9.754;2023-04-01T00:31:06;8.52;;;1.30;;
22965;SDS011;11649;48.090;9.754;2023-04-01T00:33:34;3.20;;;0.85;;
22965;SDS011;11649;48.090;9.754;2023-04-01T00:36:12;2.20;;;0.90;;
22965;SDS011;11649;48.090;9.754;2023-04-01T00:38:41;3.00;;;0.90;;
22965;SDS011;11649;48.090;9.754;2023-04-01T00:41:09;3.15;;;0.90;;
22965;SDS011;11649;48.090;9.754;2023-04-01T00:43:45;6.68;;;1.10;;
22965;SDS011;11649;48.090;9.754;2023-04-01T00:46:13;4.60;;;0.77;;
22965;SDS011;11649;48.090;9.754;2023-04-01T00:48:51;2.97;;;0.90;;
22965;SDS011;11649;48.090;9.754;2023-04-01T00:51:21;3.42;;;0.70;;
22965;SDS011;11649;48.090;9.754;2023-04-01T00:53:52;3.35;;;0.88;;
22965;SDS011;11649;48.090;9.754;2023-04-01T00:56:22;0.68;;;0.63;;
22965;SDS011;11649;48.090;9.754;2023-04-01T00:58:52;2.72;;;0.50;;
22965;SDS011;11649;48.090;9.754;2023-04-01T01:01:24;1.40;;;0.73;;
22965;SDS011;11649;48.090;9.754;2023-04-01T01:03:52;1.90;;;0.70;;
22965;SDS011;11649;48.090;9.754;2023-04-01T01:17:15;1.95;;;0.70;;
22965;SDS011;11649;48.090;9.754;2023-04-01T01:20:18;1.63;;;0.60;;
22965;SDS011;11649;48.090;9.754;2023-04-01T01:37:29;0.93;;;0.40;;
22965;SDS011;11649;48.090;9.754;2023-04-01T01:40:03;3.13;;;0.40;;
22965;SDS011;11649;48.090;9.754;2023-04-01T01:42:33;0.52;;;0.35;;
22965;SDS011;11649;48.090;9.754;2023-04-01T01:45:04;1.85;;;0.50;;
22965;SDS011;11649;48.090;9.754;2023-04-01T01:47:33;1.08;;;0.50;;
22965;SDS011;11649;48.090;9.754;2023-04-01T01:50:02;0.98;;;0.32;;
22965;SDS011;11649;48.090;9.754;2023-04-01T01:52:31;0.98;;;0.40;;
22965;SDS011;11649;48.090;9.754;2023-04-01T01:54:58;1.25;;;0.40;;
22965;SDS011;11649;48.090;9.754;2023-04-01T01:57:26;1.77;;;0.57;;
22965;SDS011;11649;48.090;9.754;2023-04-01T02:00:02;0.40;;;0.30;;
22965;SDS011;11649;48.090;9.754;2023-04-01T02:02:42;1.95;;;0.43;;
22965;SDS011;11649;48.090;9.754;2023-04-01T02:05:11;1.45;;;0.30;;
22965;SDS011;11649;48.090;9.754;2023-04-01T02:07:43;2.28;;;0.40;;
22965;SDS011;11649;48.090;9.754;2023-04-01T02:10:14;1.33;;;0.40;;
22965;SDS011;11649;48.090;9.754;2023-04-01T02:12:42;0.70;;;0.30;;
22965;SDS011;11649;48.090;9.754;2023-04-01T02:15:12;1.67;;;0.43;;
22965;SDS011;11649;48.090;9.754;2023-04-01T02:17:44;0.88;;;0.40;;
22965;SDS011;11649;48.090;9.754;2023-04-01T02:20:18;0.43;;;0.30;;
22965;SDS011;11649;48.090;9.754;2023-04-01T02:25:22;1.13;;;0.40;;
22965;SDS011;11649;48.090;9.754;2023-04-01T02:27:52;2.10;;;0.40;;
22965;SDS011;11649;48.090;9.754;2023-04-01T02:30:21;0.50;;;0.40;;
22965;SDS011;11649;48.090;9.754;2023-04-01T02:32:49;0.65;;;0.38;;
22965;SDS011;11649;48.090;9.754;2023-04-01T02:35:16;1.10;;;0.30;;
22965;SDS011;11649;48.090;9.754;2023-04-01T02:37:44;0.95;;;0.30;;
22965;SDS011;11649;48.090;9.754;2023-04-01T02:40:15;0.35;;;0.30;;
22965;SDS011;11649;48.090;9.754;2023-04-01T02:42:43;0.73;;;0.40;;
22965;SDS011;11649;48.090;9.754;2023-04-01T02:45:11;0.50;;;0.30;;
22965;SDS011;11649;48.090;9.754;2023-04-01T02:47:38;0.32;;;0.32;;
22965;SDS011;11649;48.090;9.754;2023-04-01T02:50:05;2.83;;;0.40;;
22965;SDS011;11649;48.090;9.754;2023-04-01T02:52:33;0.50;;;0.30;;
22965;SDS011;11649;48.090;9.754;2023-04-01T02:54:59;2.08;;;0.50;;
22965;SDS011;11649;48.090;9.754;2023-04-01T02:57:27;7.85;;;0.70;;
22965;SDS011;11649;48.090;9.754;2023-04-01T02:59:55;2.08;;;0.50;;
22965;SDS011;11649;48.090;9.754;2023-04-01T03:02:22;1.75;;;0.45;;
22965;SDS011;11649;48.090;9.754;2023-04-01T03:04:49;1.42;;;0.60;;
22965;SDS011;11649;48.090;9.754;2023-04-01T03:07:15;2.33;;;0.63;;
22965;SDS011;11649;48.090;9.754;2023-04-01T03:09:42;2.75;;;0.80;;
22965;SDS011;11649;48.090;9.754;2023-04-01T03:12:09;1.65;;;0.70;;
22965;SDS011;11649;48.090;9.754;2023-04-01T03:14:36;1.90;;;0.80;;
22965;SDS011;11649;48.090;9.754;2023-04-01T03:17:02;2.33;;;0.77;;
22965;SDS011;11649;48.090;9.754;2023-04-01T03:19:29;4.07;;;1.05;;
22965;SDS011;11649;48.090;9.754;2023-04-01T03:21:56;1.40;;;0.80;;
22965;SDS011;11649;48.090;9.754;2023-04-01T03:24:23;3.42;;;1.13;;
22965;SDS011;11649;48.090;9.754;2023-04-01T03:26:49;3.85;;;1.00;;
22965;SDS011;11649;48.090;9.754;2023-04-01T03:29:16;1.65;;;0.90;;
22965;SDS011;11649;48.090;9.754;2023-04-01T03:31:43;3.97;;;1.15;;
22965;SDS011;11649;48.090;9.754;2023-04-01T03:34:10;5.57;;;1.20;;
22965;SDS011;11649;48.090;9.754;2023-04-01T03:36:37;1.85;;;0.80;;
22965;SDS011;11649;48.090;9.754;2023-04-01T03:39:04;4.97;;;1.08;;
22965;SDS011;11649;48.090;9.754;2023-04-01T03:41:31;3.92;;;0.98;;
22965;SDS011;11649;48.090;9.754;2023-04-01T03:43:59;4.45;;;1.13;;
22965;SDS011;11649;48.090;9.754;2023-04-01T03:46:25;5.07;;;1.15;;
22965;SDS011;11649;48.090;9.754;2023-04-01T03:48:52;3.13;;;0.95;;
22965;SDS011;11649;48.090;9.754;2023-04-01T03:51:19;2.38;;;0.80;;
22965;SDS011;11649;48.090;9.754;2023-04-01T03:53:46;3.03;;;0.90;;
22965;SDS011;11649;48.090;9.754;2023-04-01T03:56:13;1.55;;;0.90;;
22965;SDS011;11649;48.090;9.754;2023-04-01T03:58:40;5.15;;;1.10;;
22965;SDS011;11649;48.090;9.754;2023-04-01T04:01:13;2.10;;;0.90;;
22965;SDS011;11649;48.090;9.754;2023-04-01T04:03:41;2.20;;;1.00;;
22965;SDS011;11649;48.090;9.754;2023-04-01T04:06:11;4.05;;;1.48;;
22965;SDS011;11649;48.090;9.754;2023-04-01T04:08:39;2.55;;;0.82;;
22965;SDS011;11649;48.090;9.754;2023-04-01T04:11:06;1.90;;;1.00;;
22965;SDS011;11649;48.090;9.754;2023-04-01T04:13:33;3.40;;;1.10;;
22965;SDS011;11649;48.090;9.754;2023-04-01T04:16:00;3.03;;;0.93;;
22965;SDS011;11649;48.090;9.754;2023-04-01T04:18:27;2.25;;;0.90;;
22965;SDS011;11649;48.090;9.754;2023-04-01T04:20:53;2.08;;;0.80;;
22965;SDS011;11649;48.090;9.754;2023-04-01T04:23:20;1.98;;;0.75;;
22965;SDS011;11649;48.090;9.754;2023-04-01T04:25:54;4.57;;;1.02;;
22965;SDS011;11649;48.090;9.754;2023-04-01T04:28:23;3.38;;;0.95;;
22965;SDS011;11649;48.090;9.754;2023-04-01T04:30:50;4.18;;;0.98;;
22965;SDS011;11649;48.090;9.754;2023-04-01T04:33:17;3.33;;;1.20;;
22965;SDS011;11649;48.090;9.754;2023-04-01T04:35:44;2.38;;;0.80;;
22965;SDS011;11649;48.090;9.754;2023-04-01T04:38:11;2.42;;;1.08;;
22965;SDS011;11649;48.090;9.754;2023-04-01T04:40:39;5.45;;;1.35;;
22965;SDS011;11649;48.090;9.754;2023-04-01T04:43:06;3.70;;;1.85;;
22965;SDS011;11649;48.090;9.754;2023-04-01T04:45:33;9.73;;;4.78;;
22965;SDS011;11649;48.090;9.754;2023-04-01T04:48:00;9.38;;;3.05;;
22965;SDS011;11649;48.090;9.754;2023-04-01T04:50:27;4.40;;;1.40;;
22965;SDS011;11649;48.090;9.754;2023-04-01T04:52:54;3.92;;;1.40;;
22965;SDS011;11649;48.090;9.754;2023-04-01T04:55:21;6.65;;;1.40;;
22965;SDS011;11649;48.090;9.754;2023-04-01T04:57:47;3.17;;;0.93;;
22965;SDS011;11649;48.090;9.754;2023-04-01T05:00:14;1.60;;;1.10;;
22965;SDS011;11649;48.090;9.754;2023-04-01T05:02:41;3.47;;;0.90;;
22965;SDS011;11649;48.090;9.754;2023-04-01T05:05:08;3.17;;;1.00;;
22965;SDS011;11649;48.090;9.754;2023-04-01T05:07:36;2.97;;;1.08;;
22965;SDS011;11649;48.090;9.754;2023-04-01T05:10:03;5.10;;;1.48;;
22965;SDS011;11649;48.090;9.754;2023-04-01T05:12:30;6.72;;;1.20;;
22965;SDS011;11649;48.090;9.754;2023-04-01T05:14:59;4.70;;;1.25;;
22965;SDS011;11649;48.090;9.754;2023-04-01T05:17:26;6.20;;;1.40;;
22965;SDS011;11649;48.090;9.754;2023-04-01T05:19:53;5.28;;;0.98;;
22965;SDS011;11649;48.090;9.754;2023-04-01T05:22:20;3.80;;;1.20;;
22965;SDS011;11649;48.090;9.754;2023-04-01T05:24:46;4.40;;;1.10;;
22965;SDS011;11649;48.090;9.754;2023-04-01T05:27:13;4.90;;;1.15;;
22965;SDS011;11649;48.090;9.754;2023-04-01T05:29:40;5.78;;;1.60;;
22965;SDS011;11649;48.090;9.754;2023-04-01T05:32:07;2.58;;;1.10;;
22965;SDS011;11649;48.090;9.754;2023-04-01T05:34:33;5.50;;;1.48;;
22965;SDS011;11649;48.090;9.754;2023-04-01T05:37:00;3.75;;;1.40;;
22965;SDS011;11649;48.090;9.754;2023-04-01T05:39:27;5.70;;;2.20;;
22965;SDS011;11649;48.090;9.754;2023-04-01T05:41:54;8.75;;;1.48;;
22965;SDS011;11649;48.090;9.754;2023-04-01T05:44:21;3.20;;;0.85;;
22965;SDS011;11649;48.090;9.754;2023-04-01T05:46:48;3.97;;;1.27;;
22965;SDS011;11649;48.090;9.754;2023-04-01T05:49:14;3.60;;;1.25;;
22965;SDS011;11649;48.090;9.754;2023-04-01T05:51:41;2.97;;;0.93;;
22965;SDS011;11649;48.090;9.754;2023-04-01T05:54:08;3.22;;;0.80;;
22965;SDS011;11649;48.090;9.754;2023-04-01T05:56:34;2.22;;;0.77;;
22965;SDS011;11649;48.090;9.754;2023-04-01T05:59:01;1.90;;;0.88;;
22965;SDS011;11649;48.090;9.754;2023-04-01T06:01:28;1.58;;;0.75;;
22965;SDS011;11649;48.090;9.754;2023-04-01T06:03:55;1.70;;;0.70;;
22965;SDS011;11649;48.090;9.754;2023-04-01T06:06:26;2.35;;;0.98;;
22965;SDS011;11649;48.090;9.754;2023-04-01T06:08:55;1.40;;;0.70;;
22965;SDS011;11649;48.090;9.754;2023-04-01T06:11:43;2.78;;;0.60;;
22965;SDS011;11649;48.090;9.754;2023-04-01T06:14:41;2.72;;;0.70;;
22965;SDS011;11649;48.090;9.754;2023-04-01T06:25:34;2.95;;;0.80;;
22965;SDS011;11649;48.090;9.754;2023-04-01T06:31:01;2.38;;;0.93;;
22965;SDS011;11649;48.090;9.754;2023-04-01T06:33:43;1.15;;;0.80;;
22965;SDS011;11649;48.090;9.754;2023-04-01T06:36:30;3.15;;;0.80;;
22965;SDS011;11649;48.090;9.754;2023-04-01T06:39:16;1.77;;;0.73;;
22965;SDS011;11649;48.090;9.754;2023-04-01T06:47:36;1.35;;;1.08;;
22965;SDS011;11649;48.090;9.754;2023-04-01T06:53:01;2.78;;;1.35;;
22965;SDS011;11649;48.090;9.754;2023-04-01T06:55:43;3.90;;;1.38;;
22965;SDS011;11649;48.090;9.754;2023-04-01T06:58:16;1.67;;;0.95;;
22965;SDS011;11649;48.090;9.754;2023-04-01T07:00:49;3.40;;;1.20;;
22965;SDS011;11649;48.090;9.754;2023-04-01T07:06:13;2.90;;;1.30;;
22965;SDS011;11649;48.090;9.754;2023-04-01T07:08:45;2.80;;;1.08;;
22965;SDS011;11649;48.090;9.754;2023-04-01T07:11:25;3.72;;;1.40;;
22965;SDS011;11649;48.090;9.754;2023-04-01T07:16:45;1.00;;;0.70;;
22965;SDS011;11649;48.090;9.754;2023-04-01T07:19:20;1.75;;;0.63;;
22965;SDS011;11649;48.090;9.754;2023-04-01T07:24:29;2.65;;;1.08;;
22965;SDS011;11649;48.090;9.754;2023-04-01T07:27:12;1.55;;;0.98;;
22965;SDS011;11649;48.090;9.754;2023-04-01T07:29:40;2.30;;;0.82;;
22965;SDS011;11649;48.090;9.754;2023-04-01T07:32:54;1.63;;;0.90;;
22965;SDS011;11649;48.090;9.754;2023-04-01T07:35:34;1.60;;;0.93;;
22965;SDS011;11649;48.090;9.754;2023-04-01T07:49:35;1.30;;;0.80;;
22965;SDS011;11649;48.090;9.754;2023-04-01T07:55:27;1.53;;;0.60;;
22965;SDS011;11649;48.090;9.754;2023-04-01T07:58:14;0.90;;;0.52;;
22965;SDS011;11649;48.090;9.754;2023-04-01T08:01:06;1.23;;;0.77;;
22965;SDS011;11649;48.090;9.754;2023-04-01T08:09:41;1.02;;;0.57;;
22965;SDS011;11649;48.090;9.754;2023-04-01T08:15:21;1.02;;;0.70;;
22965;SDS011;11649;48.090;9.754;2023-04-01T08:17:57;2.15;;;0.75;;
22965;SDS011;11649;48.090;9.754;2023-04-01T08:20:43;1.45;;;0.55;;
22965;SDS011;11649;48.090;9.754;2023-04-01T08:23:22;0.85;;;0.68;;
22965;SDS011;11649;48.090;9.754;2023-04-01T08:25:58;1.40;;;1.02;;
22965;SDS011;11649;48.090;9.754;2023-04-01T08:28:31;0.50;;;0.50;;
22965;SDS011;11649;48.090;9.754;2023-04-01T08:31:07;1.55;;;0.63;;
22965;SDS011;11649;48.090;9.754;2023-04-01T08:33:38;1.17;;;0.95;;
22965;SDS011;11649;48.090;9.754;2023-04-01T08:36:08;1.45;;;0.70;;
22965;SDS011;11649;48.090;9.754;2023-04-01T08:39:06;3.03;;;1.58;;
22965;SDS011;11649;48.090;9.754;2023-04-01T08:41:35;1.60;;;0.70;;
22965;SDS011;11649;48.090;9.754;2023-04-01T08:44:52;2.05;;;0.80;;
22965;SDS011;11649;48.090;9.754;2023-04-01T08:47:40;1.58;;;1.00;;
22965;SDS011;11649;48.090;9.754;2023-04-01T08:53:17;1.52;;;1.08;;
22965;SDS011;11649;48.090;9.754;2023-04-01T08:56:01;4.72;;;2.00;;
22965;SDS011;11649;48.090;9.754;2023-04-01T08:58:59;2.55;;;1.52;;
22965;SDS011;11649;48.090;9.754;2023-04-01T09:04:31;0.93;;;0.85;;
22965;SDS011;11649;48.090;9.754;2023-04-01T09:07:35;1.98;;;1.48;;
22965;SDS011;11649;48.090;9.754;2023-04-01T09:18:35;10.52;;;5.45;;
22965;SDS011;11649;48.090;9.754;2023-04-01T09:21:34;7.40;;;2.80;;
22965;SDS011;11649;48.090;9.754;2023-04-01T09:35:04;1.05;;;0.70;;
22965;SDS011;11649;48.090;9.754;2023-04-01T09:44:03;0.35;;;0.32;;
22965;SDS011;11649;48.090;9.754;2023-04-01T09:52:08;0.60;;;0.60;;
22965;SDS011;11649;48.090;9.754;2023-04-01T09:55:04;2.17;;;0.50;;
22965;SDS011;11649;48.090;9.754;2023-04-01T09:57:43;0.40;;;0.40;;
22965;SDS011;11649;48.090;9.754;2023-04-01T10:14:25;4.90;;;3.20;;
22965;SDS011;11649;48.090;9.754;2023-04-01T10:23:00;0.93;;;0.50;;
22965;SDS011;11649;48.090;9.754;2023-04-01T10:28:21;0.65;;;0.40;;
22965;SDS011;11649;48.090;9.754;2023-04-01T10:34:12;1.10;;;0.68;;
22965;SDS011;11649;48.090;9.754;2023-04-01T10:36:57;0.90;;;0.60;;
22965;SDS011;11649;48.090;9.754;2023-04-01T10:40:17;1.05;;;0.70;;
22965;SDS011;11649;48.090;9.754;2023-04-01T10:43:15;1.67;;;1.50;;
22965;SDS011;11649;48.090;9.754;2023-04-01T10:48:37;1.00;;;0.80;;
22965;SDS011;11649;48.090;9.754;2023-04-01T10:57:14;1.05;;;0.50;;
22965;SDS011;11649;48.090;9.754;2023-04-01T11:08:37;1.58;;;1.05;;
22965;SDS011;11649;48.090;9.754;2023-04-01T11:34:24;2.63;;;1.48;;
22965;SDS011;11649;48.090;9.754;2023-04-01T11:37:19;1.35;;;0.90;;
22965;SDS011;11649;48.090;9.754;2023-04-01T11:43:15;3.10;;;1.10;;
22965;SDS011;11649;48.090;9.754;2023-04-01T11:46:03;1.48;;;1.30;;
22965;SDS011;11649;48.090;9.754;2023-04-01T12:00:00;3.65;;;2.22;;
22965;SDS011;11649;48.090;9.754;2023-04-01T12:13:55;2.72;;;1.23;;
22965;SDS011;11649;48.090;9.754;2023-04-01T12:16:45;0.67;;;0.67;;
22965;SDS011;11649;48.090;9.754;2023-04-01T12:22:40;3.03;;;2.17;;
22965;SDS011;11649;48.090;9.754;2023-04-01T12:28:03;2.22;;;1.40;;
22965;SDS011;11649;48.090;9.754;2023-04-01T12:33:35;1.92;;;1.08;;
22965;SDS011;11649;48.090;9.754;2023-04-01T12:45:02;1.13;;;0.80;;
22965;SDS011;11649;48.090;9.754;2023-04-01T12:50:26;1.77;;;1.20;;
22965;SDS011;11649;48.090;9.754;2023-04-01T12:55:46;1.33;;;0.90;;
22965;SDS011;11649;48.090;9.754;2023-04-01T13:01:19;1.27;;;1.10;;
22965;SDS011;11649;48.090;9.754;2023-04-01T13:06:43;4.80;;;2.40;;
22965;SDS011;11649;48.090;9.754;2023-04-01T13:20:29;0.80;;;0.63;;
22965;SDS011;11649;48.090;9.754;2023-04-01T13:31:47;1.15;;;0.52;;
22965;SDS011;11649;48.090;9.754;2023-04-01T13:42:25;0.60;;;0.60;;
22965;SDS011;11649;48.090;9.754;2023-04-01T13:45:24;0.98;;;0.55;;
22965;SDS011;11649;48.090;9.754;2023-04-01T13:48:25;1.83;;;0.70;;
22965;SDS011;11649;48.090;9.754;2023-04-01T13:56:49;0.80;;;0.80;;
22965;SDS011;11649;48.090;9.754;2023-04-01T14:08:47;1.00;;;0.60;;
22965;SDS011;11649;48.090;9.754;2023-04-01T14:14:17;0.90;;;0.68;;
22965;SDS011;11649;48.090;9.754;2023-04-01T14:17:13;0.75;;;0.70;;
22965;SDS011;11649;48.090;9.754;2023-04-01T14:31:11;0.85;;;0.75;;
22965;SDS011;11649;48.090;9.754;2023-04-01T14:42:15;3.13;;;0.95;;
22965;SDS011;11649;48.090;9.754;2023-04-01T14:47:47;1.38;;;0.90;;
22965;SDS011;11649;48.090;9.754;2023-04-01T14:50:23;1.10;;;0.60;;
22965;SDS011;11649;48.090;9.754;2023-04-01T14:58:11;1.48;;;0.80;;
22965;SDS011;11649;48.090;9.754;2023-04-01T15:00:47;2.17;;;0.90;;
22965;SDS011;11649;48.090;9.754;2023-04-01T15:03:36;1.27;;;0.50;;
22965;SDS011;11649;48.090;9.754;2023-04-01T15:14:42;1.50;;;0.98;;
22965;SDS011;11649;48.090;9.754;2023-04-01T15:37:01;3.03;;;1.00;;
22965;SDS011;11649;48.090;9.754;2023-04-01T15:45:12;2.22;;;1.30;;
22965;SDS011;11649;48.090;9.754;2023-04-01T15:58:32;2.20;;;1.50;;
22965;SDS011;11649;48.090;9.754;2023-04-01T16:12:50;2.60;;;1.80;;
22965;SDS011;11649;48.090;9.754;2023-04-01T16:15:37;2.67;;;1.65;;
22965;SDS011;11649;48.090;9.754;2023-04-01T16:18:32;1.27;;;1.00;;
22965;SDS011;11649;48.090;9.754;2023-04-01T16:23:50;1.02;;;0.90;;
22965;SDS011;11649;48.090;9.754;2023-04-01T16:26:33;1.60;;;0.93;;
22965;SDS011;11649;48.090;9.754;2023-04-01T16:32:23;2.05;;;0.75;;
22965;SDS011;11649;48.090;9.754;2023-04-01T16:35:15;4.03;;;2.95;;
22965;SDS011;11649;48.090;9.754;2023-04-01T16:37:48;8.45;;;5.97;;
22965;SDS011;11649;48.090;9.754;2023-04-01T16:43:11;1.75;;;0.88;;
22965;SDS011;11649;48.090;9.754;2023-04-01T16:51:35;3.95;;;1.20;;
22965;SDS011;11649;48.090;9.754;2023-04-01T16:54:35;1.65;;;1.00;;
22965;SDS011;11649;48.090;9.754;2023-04-01T16:57:02;1.85;;;1.30;;
22965;SDS011;11649;48.090;9.754;2023-04-01T16:59:37;2.47;;;1.98;;
22965;SDS011;11649;48.090;9.754;2023-04-01T17:02:27;3.00;;;1.55;;
22965;SDS011;11649;48.090;9.754;2023-04-01T17:05:01;2.10;;;1.60;;
22965;SDS011;11649;48.090;9.754;2023-04-01T17:10:42;3.45;;;1.95;;
22965;SDS011;11649;48.090;9.754;2023-04-01T17:21:49;4.00;;;1.90;;
22965;SDS011;11649;48.090;9.754;2023-04-01T17:27:12;1.30;;;1.00;;
22965;SDS011;11649;48.090;9.754;2023-04-01T17:35:33;2.72;;;1.13;;
22965;SDS011;11649;48.090;9.754;2023-04-01T17:41:00;2.53;;;1.50;;
22965;SDS011;11649;48.090;9.754;2023-04-01T17:46:11;1.48;;;0.85;;
22965;SDS011;11649;48.090;9.754;2023-04-01T17:48:56;2.20;;;0.80;;
22965;SDS011;11649;48.090;9.754;2023-04-01T17:51:35;1.40;;;1.20;;
22965;SDS011;11649;48.090;9.754;2023-04-01T17:57:01;0.95;;;0.80;;
22965;SDS011;11649;48.090;9.754;2023-04-01T17:59:52;0.70;;;0.70;;
22965;SDS011;11649;48.090;9.754;2023-04-01T18:02:51;1.77;;;0.90;;
22965;SDS011;11649;48.090;9.754;2023-04-01T18:05:51;3.35;;;1.08;;
22965;SDS011;11649;48.090;9.754;2023-04-01T18:08:34;1.80;;;1.13;;
22965;SDS011;11649;48.090;9.754;2023-04-01T18:11:34;3.60;;;1.48;;
22965;SDS011;11649;48.090;9.754;2023-04-01T18:22:53;1.33;;;1.20;;
22965;SDS011;11649;48.090;9.754;2023-04-01T18:25:34;1.20;;;0.88;;
22965;SDS011;11649;48.090;9.754;2023-04-01T18:33:29;1.95;;;0.98;;
22965;SDS011;11649;48.090;9.754;2023-04-01T18:36:16;2.03;;;1.13;;
22965;SDS011;11649;48.090;9.754;2023-04-01T18:39:00;2.95;;;1.48;;
22965;SDS011;11649;48.090;9.754;2023-04-01T18:41:51;2.03;;;1.20;;
22965;SDS011;11649;48.090;9.754;2023-04-01T18:44:41;3.25;;;1.20;;
22965;SDS011;11649;48.090;9.754;2023-04-01T18:52:41;2.42;;;1.65;;
22965;SDS011;11649;48.090;9.754;2023-04-01T18:57:58;3.92;;;2.70;;
22965;SDS011;11649;48.090;9.754;2023-04-01T19:00:38;5.18;;;2.95;;
22965;SDS011;11649;48.090;9.754;2023-04-01T19:03:21;3.75;;;2.95;;
22965;SDS011;11649;48.090;9.754;2023-04-01T19:05:59;4.63;;;3.05;;
22965;SDS011;11649;48.090;9.754;2023-04-01T19:08:35;3.05;;;1.70;;
22965;SDS011;11649;48.090;9.754;2023-04-01T19:17:08;6.53;;;5.20;;
22965;SDS011;11649;48.090;9.754;2023-04-01T19:19:46;7.22;;;4.07;;
22965;SDS011;11649;48.090;9.754;2023-04-01T19:25:42;4.10;;;2.45;;
22965;SDS011;11649;48.090;9.754;2023-04-01T19:31:10;3.10;;;1.52;;
22965;SDS011;11649;48.090;9.754;2023-04-01T19:36:29;2.85;;;1.92;;
22965;SDS011;11649;48.090;9.754;2023-04-01T19:39:14;3.65;;;2.00;;
22965;SDS011;11649;48.090;9.754;2023-04-01T19:46:55;2.92;;;1.90;;
22965;SDS011;11649;48.090;9.754;2023-04-01T19:49:53;2.80;;;1.70;;
22965;SDS011;11649;48.090;9.754;2023-04-01T19:52:36;2.70;;;1.20;;
22965;SDS011;11649;48.090;9.754;2023-04-01T19:57:58;4.55;;;2.83;;
22965;SDS011;11649;48.090;9.754;2023-04-01T20:00:52;3.47;;;2.10;;
22965;SDS011;11649;48.090;9.754;2023-04-01T20:03:33;2.35;;;1.52;;
22965;SDS011;11649;48.090;9.754;2023-04-01T20:06:14;3.40;;;1.70;;
22965;SDS011;11649;48.090;9.754;2023-04-01T20:09:07;2.13;;;1.25;;
22965;SDS011;11649;48.090;9.754;2023-04-01T20:14:43;4.68;;;1.70;;
22965;SDS011;11649;48.090;9.754;2023-04-01T20:20:24;1.45;;;1.10;;
22965;SDS011;11649;48.090;9.754;2023-04-01T20:26:02;3.35;;;1.40;;
22965;SDS011;11649;48.090;9.754;2023-04-01T20:28:44;1.70;;;1.40;;
22965;SDS011;11649;48.090;9.754;2023-04-01T20:31:31;1.95;;;1.45;;
22965;SDS011;11649;48.090;9.754;2023-04-01T20:42:16;2.38;;;1.38;;
22965;SDS011;11649;48.090;9.754;2023-04-01T20:45:32;1.50;;;1.20;;
22965;SDS011;11649;48.090;9.754;2023-04-01T20:51:14;1.73;;;1.27;;
22965;SDS011;11649;48.090;9.754;2023-04-01T20:53:43;2.58;;;1.50;;
22965;SDS011;11649;48.090;9.754;2023-04-01T20:59:35;4.97;;;2.85;;
22965;SDS011;11649;48.090;9.754;2023-04-01T21:17:05;8.30;;;5.25;;
22965;SDS011;11649;48.090;9.754;2023-04-01T21:19:37;10.75;;;5.15;;
22965;SDS011;11649;48.090;9.754;2023-04-01T21:41:06;2.72;;;2.10;;
22965;SDS011;11649;48.090;9.754;2023-04-01T21:52:44;3.30;;;1.50;;
22965;SDS011;11649;48.090;9.754;2023-04-01T22:07:20;3.22;;;1.95;;
22965;SDS011;11649;48.090;9.754;2023-04-01T22:15:03;2.63;;;1.53;;
22965;SDS011;11649;48.090;9.754;2023-04-01T22:17:41;2.75;;;1.48;;
22965;SDS011;11649;48.090;9.754;2023-04-01T22:20:23;2.38;;;1.50;;
22965;SDS011;11649;48.090;9.754;2023-04-01T22:23:08;3.58;;;1.75;;
22965;SDS011;11649;48.090;9.754;2023-04-01T22:25:49;5.63;;;2.95;;
22965;SDS011;11649;48.090;9.754;2023-04-01T22:31:01;2.25;;;1.75;;
22965;SDS011;11649;48.090;9.754;2023-04-01T22:36:47;4.45;;;1.90;;
22965;SDS011;11649;48.090;9.754;2023-04-01T22:39:29;4.35;;;1.65;;
22965;SDS011;11649;48.090;9.754;2023-04-01T22:50:44;2.13;;;1.63;;
22965;SDS011;11649;48.090;9.754;2023-04-01T22:53:30;3.53;;;1.80;;
22965;SDS011;11649;48.090;9.754;2023-04-01T22:55:59;3.22;;;1.80;;
22965;SDS011;11649;48.090;9.754;2023-04-01T22:58:33;2.47;;;1.83;;
22965;SDS011;11649;48.090;9.754;2023-04-01T23:01:10;2.88;;;2.03;;
22965;SDS011;11649;48.090;9.754;2023-04-01T23:03:41;4.60;;;2.17;;
22965;SDS011;11649;48.090;9.754;2023-04-01T23:06:15;3.47;;;2.22;;
22965;SDS011;11649;48.090;9.754;2023-04-01T23:08:57;4.80;;;2.40;;
22965;SDS011;11649;48.090;9.754;2023-04-01T23:11:57;3.35;;;2.17;;
22965;SDS011;11649;48.090;9.754;2023-04-01T23:14:55;2.20;;;1.73;;
22965;SDS011;11649;48.090;9.754;2023-04-01T23:25:51;6.43;;;2.00;;
22965;SDS011;11649;48.090;9.754;2023-04-01T23:28:48;4.63;;;2.10;;
22965;SDS011;11649;48.090;9.754;2023-04-01T23:31:28;2.80;;;1.98;;
22965;SDS011;11649;48.090;9.754;2023-04-01T23:34:44;3.85;;;1.95;;
22965;SDS011;11649;48.090;9.754;2023-04-01T23:36:51;3.05;;;1.90;;
22965;SDS011;11649;48.090;9.754;2023-04-01T23:39:22;4.53;;;2.35;;
22965;SDS011;11649;48.090;9.754;2023-04-01T23:41:54;3.50;;;2.25;;
22965;SDS011;11649;48.090;9.754;2023-04-01T23:44:24;5.28;;;2.95;;
22965;SDS011;11649;48.090;9.754;2023-04-01T23:46:53;5.82;;;3.58;;
22965;SDS011;11649;48.090;9.754;2023-04-01T23:49:21;4.63;;;2.00;;
22965;SDS011;11649;48.090;9.754;2023-04-01T23:55:19;1.90;;;1.10;;
